Time;durP1;ratioP1;P1;durP2;ratioP2;P2;SDS_P1;SDS_P2;PMS_P1;PMS_P2;Temp;Humidity;BMP_temperature;BMP_pressure;BME280_temperature;BME280_humidity;BME280_pressure;Samples;Min_cycle;Max_cycle;Signal;HPM_P1;HPM_P2
2022/06/12 00:01:01;;;;;;;1.00;1.00;;;20.30;99.90;;;;;;4942193;28;20575;-77
2022/06/12 00:03:32;;;;;;;1.00;1.00;;;20.20;99.90;;;;;;4951059;28;20233;-78
2022/06/12 00:06:01;;;;;;;0.90;0.90;;;20.20;99.90;;;;;;4950757;29;20206;-77
2022/06/12 00:08:31;;;;;;;0.90;0.90;;;20.10;99.90;;;;;;4943485;28;20226;-77
2022/06/12 00:11:00;;;;;;;1.00;1.00;;;20.20;99.90;;;;;;4949525;28;20202;-77
2022/06/12 00:13:30;;;;;;;1.10;1.00;;;20.10;99.90;;;;;;4949978;28;20226;-77
2022/06/12 00:15:57;;;;;;;1.35;1.25;;;20.10;99.90;;;;;;4943597;28;20565;-77
2022/06/12 00:18:25;;;;;;;1.13;1.10;;;20.10;99.90;;;;;;4946171;28;20261;-76
2022/06/12 00:21:10;;;;;;;1.00;1.00;;;20.10;99.90;;;;;;4945255;28;20202;-77
2022/06/12 00:23:42;;;;;;;1.27;0.93;;;20.10;99.90;;;;;;4946561;28;20258;-77
2022/06/12 00:26:10;;;;;;;1.40;1.30;;;20.00;99.90;;;;;;4944508;28;20203;-77
2022/06/12 00:28:37;;;;;;;1.27;1.10;;;20.00;99.90;;;;;;4944070;28;20234;-77
2022/06/12 00:31:04;;;;;;;1.70;1.20;;;20.00;99.90;;;;;;4942233;28;20688;-77
2022/06/12 00:33:31;;;;;;;0.90;0.90;;;20.00;99.90;;;;;;4943250;29;20473;-77
2022/06/12 00:35:59;;;;;;;1.20;1.10;;;19.90;99.90;;;;;;4946784;28;20203;-77
2022/06/12 00:38:26;;;;;;;1.10;1.00;;;20.00;99.90;;;;;;4946378;29;20210;-77
2022/06/12 00:40:55;;;;;;;1.08;1.02;;;20.00;99.90;;;;;;4941162;28;20198;-77
2022/06/12 00:43:27;;;;;;;1.23;1.15;;;19.90;99.90;;;;;;4946440;28;20234;-77
2022/06/12 00:45:59;;;;;;;1.17;1.17;;;19.90;99.90;;;;;;4943105;28;20205;-77
2022/06/12 00:48:29;;;;;;;1.10;1.10;;;19.90;99.90;;;;;;4954099;28;20270;-77
2022/06/12 00:51:00;;;;;;;0.90;0.90;;;19.90;99.90;;;;;;4943971;28;20315;-77
2022/06/12 00:53:31;;;;;;;1.15;1.13;;;19.80;99.90;;;;;;4947871;28;20241;-77
2022/06/12 00:56:06;;;;;;;1.08;1.05;;;19.80;99.90;;;;;;4947553;28;20194;-77
2022/06/12 00:58:38;;;;;;;4.15;1.20;;;19.70;99.90;;;;;;4942120;28;20245;-77
2022/06/12 01:01:10;;;;;;;1.20;1.10;;;19.80;99.90;;;;;;4948296;28;20637;-77
2022/06/12 01:06:33;;;;;;;1.13;1.08;;;19.70;99.90;;;;;;4949705;29;20288;-76
2022/06/12 01:06:35;;;;;;;1.17;1.17;;;19.80;99.90;;;;;;4947504;28;20249;-77
2022/06/12 01:09:07;;;;;;;1.00;1.00;;;19.80;99.90;;;;;;4948788;28;20712;-76
2022/06/12 01:11:36;;;;;;;0.88;0.88;;;19.80;99.90;;;;;;4949099;28;20199;-76
2022/06/12 01:14:06;;;;;;;1.05;1.05;;;19.70;99.90;;;;;;4934512;28;20234;-77
2022/06/12 01:16:34;;;;;;;1.17;1.10;;;19.70;99.90;;;;;;4927635;29;20254;-76
2022/06/12 01:19:02;;;;;;;1.10;1.10;;;19.60;99.90;;;;;;4924780;29;20219;-77
2022/06/12 01:22:13;;;;;;;1.50;1.40;;;19.50;99.90;;;;;;4922199;29;20507;-77
2022/06/12 01:24:51;;;;;;;1.30;1.30;;;19.50;99.90;;;;;;4884174;29;20230;-76
2022/06/12 01:27:52;;;;;;;1.00;1.00;;;19.40;99.90;;;;;;4926869;29;20200;-77
2022/06/12 01:30:23;;;;;;;1.10;1.10;;;19.40;99.90;;;;;;4944273;28;20301;-76
2022/06/12 01:32:59;;;;;;;2.47;1.13;;;19.40;99.90;;;;;;4954532;28;20226;-77
2022/06/12 01:35:35;;;;;;;1.05;1.05;;;19.40;99.90;;;;;;4953917;28;20225;-77
2022/06/12 01:38:11;;;;;;;1.08;1.00;;;19.40;99.90;;;;;;4947153;29;20221;-77
2022/06/12 01:40:43;;;;;;;0.90;0.90;;;19.40;99.90;;;;;;4943129;28;20735;-77
2022/06/12 01:43:18;;;;;;;1.08;1.08;;;19.40;99.90;;;;;;4962433;23;20497;-77
2022/06/12 01:45:55;;;;;;;1.15;1.05;;;19.40;99.90;;;;;;4942972;28;20221;-76
2022/06/12 01:48:31;;;;;;;1.30;1.20;;;19.30;99.90;;;;;;4943911;28;20261;-77
2022/06/12 01:51:16;;;;;;;1.00;1.00;;;19.30;99.90;;;;;;4960931;28;20198;-77
2022/06/12 01:53:55;;;;;;;1.55;1.45;;;19.30;99.90;;;;;;4963944;28;20233;-77
2022/06/12 01:56:30;;;;;;;1.90;1.20;;;19.20;99.90;;;;;;4963922;28;20201;-77
2022/06/12 01:59:03;;;;;;;1.33;1.02;;;19.20;99.90;;;;;;4961367;28;20622;-77
2022/06/12 02:01:35;;;;;;;1.40;1.30;;;19.20;99.90;;;;;;4962219;28;20194;-77
2022/06/12 02:04:09;;;;;;;1.38;1.27;;;19.20;99.90;;;;;;4958930;28;20225;-77
2022/06/12 02:06:41;;;;;;;1.00;1.00;;;19.20;99.90;;;;;;4960689;28;20933;-77
2022/06/12 02:09:14;;;;;;;1.15;1.10;;;19.20;99.90;;;;;;4959498;28;20226;-77
2022/06/12 02:14:38;;;;;;;1.23;1.08;;;19.10;99.90;;;;;;4962581;28;20682;-77
2022/06/12 02:17:12;;;;;;;1.10;1.10;;;19.10;99.90;;;;;;4964129;28;20641;-77
2022/06/12 02:19:44;;;;;;;1.02;1.02;;;19.00;99.90;;;;;;4961606;28;20232;-77
2022/06/12 02:22:17;;;;;;;1.13;1.10;;;19.00;99.90;;;;;;4958699;28;20202;-77
2022/06/12 02:24:49;;;;;;;1.10;1.10;;;19.00;99.90;;;;;;4957381;28;20264;-77
2022/06/12 02:27:19;;;;;;;1.25;1.15;;;18.90;99.90;;;;;;4958700;28;20190;-77
2022/06/12 02:29:52;;;;;;;1.58;1.48;;;18.90;99.90;;;;;;4960640;28;20712;-77
2022/06/12 02:32:25;;;;;;;0.90;0.90;;;18.90;99.90;;;;;;4959403;28;20209;-77
2022/06/12 02:34:58;;;;;;;1.05;1.00;;;18.80;99.90;;;;;;4970681;28;20234;-76
2022/06/12 02:37:29;;;;;;;1.08;1.08;;;18.80;99.90;;;;;;4963838;28;20561;-76
2022/06/12 02:40:02;;;;;;;0.98;0.98;;;18.80;99.90;;;;;;4951522;28;20218;-77
2022/06/12 02:42:37;;;;;;;1.05;1.05;;;18.80;99.90;;;;;;4946180;29;20287;-76
2022/06/12 02:45:09;;;;;;;1.27;1.20;;;18.70;99.90;;;;;;4945957;29;20700;-76
2022/06/12 02:47:40;;;;;;;1.20;1.20;;;18.70;99.90;;;;;;4943750;28;20214;-76
2022/06/12 02:50:11;;;;;;;1.35;1.25;;;18.70;99.90;;;;;;4946039;28;20225;-75
2022/06/12 02:52:44;;;;;;;1.00;1.00;;;18.70;99.90;;;;;;4944695;29;20203;-77
2022/06/12 02:55:18;;;;;;;0.85;0.85;;;18.70;99.90;;;;;;4942707;29;22004;-76
2022/06/12 02:57:56;;;;;;;1.05;1.05;;;18.70;99.90;;;;;;4937193;29;20739;-77
2022/06/12 03:00:31;;;;;;;1.17;1.08;;;18.70;99.90;;;;;;4937654;29;20305;-77
2022/06/12 03:03:11;;;;;;;1.00;1.00;;;18.60;99.90;;;;;;4943209;29;20237;-77
2022/06/12 03:05:41;;;;;;;0.90;0.90;;;18.60;99.90;;;;;;4938078;29;20234;-76
2022/06/12 03:08:14;;;;;;;1.20;1.10;;;18.60;99.90;;;;;;4940022;29;20199;-77
2022/06/12 03:10:45;;;;;;;1.20;1.10;;;18.60;99.90;;;;;;4939210;29;20249;-76
2022/06/12 03:13:13;;;;;;;1.45;1.23;;;18.60;99.90;;;;;;4937888;29;20230;-75
2022/06/12 03:15:44;;;;;;;0.93;0.93;;;18.50;99.90;;;;;;4936427;29;20652;-76
2022/06/12 03:18:16;;;;;;;1.35;1.20;;;18.50;99.90;;;;;;4938157;29;20219;-76
2022/06/12 03:21:02;;;;;;;1.23;1.20;;;18.50;99.90;;;;;;4935748;29;21377;-77
2022/06/12 03:23:57;;;;;;;1.00;1.00;;;18.50;99.90;;;;;;4933172;29;20226;-77
2022/06/12 03:26:32;;;;;;;1.10;1.10;;;18.40;99.90;;;;;;4939784;29;20229;-76
2022/06/12 03:29:11;;;;;;;1.20;1.10;;;18.40;99.90;;;;;;4944718;29;21045;-76
2022/06/12 03:31:45;;;;;;;1.15;1.15;;;18.40;99.90;;;;;;4939610;29;20740;-77
2022/06/12 03:34:21;;;;;;;1.17;1.17;;;18.40;99.90;;;;;;4939935;29;20217;-76
2022/06/12 03:36:54;;;;;;;1.00;0.90;;;18.40;99.90;;;;;;4936441;29;20214;-76
2022/06/12 03:39:28;;;;;;;1.05;0.95;;;18.20;99.90;;;;;;4940593;29;20246;-77
2022/06/12 03:42:00;;;;;;;1.25;1.02;;;18.30;99.90;;;;;;4938135;29;20282;-77
2022/06/12 03:44:34;;;;;;;2.05;1.20;;;18.20;99.90;;;;;;4937526;29;20646;-77
2022/06/12 03:47:10;;;;;;;1.00;1.00;;;18.30;99.90;;;;;;4936148;29;20233;-77
2022/06/12 03:49:46;;;;;;;1.20;1.20;;;18.30;99.90;;;;;;4935880;29;20202;-76
2022/06/12 03:52:19;;;;;;;1.40;1.30;;;18.20;99.90;;;;;;4933112;29;20224;-76
2022/06/12 03:54:53;;;;;;;1.13;0.98;;;18.20;99.90;;;;;;4936489;29;20222;-76
2022/06/12 04:00:17;;;;;;;1.23;1.13;;;18.20;99.90;;;;;;4939380;29;20334;-77
2022/06/12 04:02:45;;;;;;;1.10;1.10;;;18.20;99.90;;;;;;4937187;29;20247;-76
2022/06/12 04:05:20;;;;;;;1.30;1.20;;;18.30;99.90;;;;;;4942964;29;20199;-75
2022/06/12 04:07:50;;;;;;;1.25;1.15;;;18.30;99.90;;;;;;4941194;29;20225;-77
2022/06/12 04:10:35;;;;;;;1.15;1.15;;;18.40;99.90;;;;;;4940745;29;20198;-77
2022/06/12 04:13:04;;;;;;;1.40;1.30;;;18.40;99.90;;;;;;4944722;29;20225;-77
2022/06/12 04:15:35;;;;;;;1.20;1.10;;;18.50;99.90;;;;;;4938187;29;20206;-77
2022/06/12 04:18:02;;;;;;;1.20;1.10;;;18.50;99.90;;;;;;4943007;29;20292;-77
2022/06/12 04:20:54;;;;;;;1.25;1.20;;;18.60;99.90;;;;;;4954486;29;20286;-76
2022/06/12 04:23:28;;;;;;;1.30;1.20;;;18.60;99.90;;;;;;4942155;29;20242;-77
2022/06/12 04:26:00;;;;;;;1.10;1.08;;;18.70;99.90;;;;;;4940287;29;20226;-77
2022/06/12 04:28:32;;;;;;;0.98;0.98;;;18.70;99.90;;;;;;4943099;29;20767;-77
2022/06/12 04:31:02;;;;;;;1.30;1.20;;;18.70;99.90;;;;;;4941586;29;20203;-76
2022/06/12 04:34:07;;;;;;;1.10;1.10;;;18.70;99.90;;;;;;4942521;29;20225;-77
2022/06/12 04:36:36;;;;;;;1.27;1.17;;;18.80;99.90;;;;;;4933906;29;20567;-77
2022/06/12 04:39:03;;;;;;;1.33;1.23;;;19.00;99.90;;;;;;4939782;29;20222;-77
2022/06/12 04:41:35;;;;;;;2.08;1.38;;;19.00;99.90;;;;;;4939301;29;20234;-77
2022/06/12 04:44:02;;;;;;;1.05;1.05;;;19.10;99.90;;;;;;4939816;29;20721;-77
2022/06/12 04:46:30;;;;;;;1.10;1.10;;;19.20;99.90;;;;;;4939590;29;20229;-76
2022/06/12 04:48:59;;;;;;;1.17;1.17;;;19.40;99.90;;;;;;4941003;29;20199;-76
2022/06/12 04:51:27;;;;;;;1.67;1.58;;;19.40;99.90;;;;;;4942501;29;20612;-76
2022/06/12 04:53:55;;;;;;;1.13;1.13;;;19.40;99.90;;;;;;4938965;29;20218;-77
2022/06/12 04:56:25;;;;;;;1.60;1.30;;;19.50;99.90;;;;;;4938025;29;20579;-77
2022/06/12 04:58:53;;;;;;;2.38;1.30;;;19.60;99.90;;;;;;4943136;29;20226;-76
2022/06/12 05:01:20;;;;;;;1.17;1.10;;;19.60;99.90;;;;;;4939487;29;20211;-76
2022/06/12 05:03:47;;;;;;;1.08;1.08;;;19.70;99.90;;;;;;4937835;29;20222;-76
2022/06/12 05:06:16;;;;;;;1.58;1.40;;;19.80;99.90;;;;;;4943689;29;20222;-76
2022/06/12 05:08:43;;;;;;;2.53;1.50;;;19.90;99.90;;;;;;4938820;29;20194;-77
2022/06/12 05:11:12;;;;;;;1.60;1.45;;;19.90;99.90;;;;;;4938670;29;20393;-76
2022/06/12 05:13:40;;;;;;;1.65;1.55;;;19.90;99.90;;;;;;4943332;29;20862;-75
2022/06/12 05:16:08;;;;;;;1.45;1.35;;;19.90;99.90;;;;;;4945285;29;20281;-76
2022/06/12 05:18:35;;;;;;;1.40;1.30;;;20.00;99.90;;;;;;4939626;29;20226;-77
2022/06/12 05:21:02;;;;;;;1.35;1.25;;;20.00;99.90;;;;;;4941202;29;20203;-76
2022/06/12 05:23:29;;;;;;;1.00;1.00;;;20.00;99.90;;;;;;4940163;29;20229;-77
2022/06/12 05:25:57;;;;;;;1.60;1.50;;;20.20;99.90;;;;;;4944588;29;20209;-76
2022/06/12 05:28:26;;;;;;;1.50;1.40;;;20.30;99.90;;;;;;4939503;29;20218;-76
2022/06/12 05:30:53;;;;;;;1.20;1.20;;;20.40;99.90;;;;;;4944197;29;20202;-77
2022/06/12 05:33:20;;;;;;;1.42;1.33;;;20.50;99.90;;;;;;4939542;29;20223;-76
2022/06/12 05:35:47;;;;;;;1.60;1.50;;;20.50;99.90;;;;;;4942794;29;20203;-76
2022/06/12 05:38:15;;;;;;;1.65;1.55;;;20.50;99.90;;;;;;4938081;29;20807;-76
2022/06/12 05:40:42;;;;;;;1.42;1.33;;;20.50;99.90;;;;;;4937677;29;20198;-76
2022/06/12 05:43:09;;;;;;;1.70;1.60;;;20.60;99.90;;;;;;4938816;29;20226;-76
2022/06/12 05:45:38;;;;;;;1.50;1.40;;;20.50;99.90;;;;;;4941582;29;20285;-76
2022/06/12 05:48:10;;;;;;;1.45;1.40;;;20.50;99.90;;;;;;4939729;29;20225;-76
2022/06/12 05:50:45;;;;;;;2.28;1.40;;;20.60;99.90;;;;;;4938089;29;20202;-76
2022/06/12 05:53:12;;;;;;;1.83;1.73;;;20.70;99.90;;;;;;4939892;29;20225;-76
2022/06/12 05:55:39;;;;;;;1.35;1.25;;;20.80;99.90;;;;;;4939570;29;20253;-77
2022/06/12 05:58:06;;;;;;;1.73;1.63;;;20.90;99.90;;;;;;4939488;29;20234;-77
2022/06/12 06:00:34;;;;;;;1.85;1.67;;;21.00;99.90;;;;;;4939794;29;20207;-76
2022/06/12 06:03:02;;;;;;;1.63;1.52;;;21.10;99.90;;;;;;4944079;29;20325;-76
2022/06/12 06:05:30;;;;;;;1.60;1.50;;;21.10;99.90;;;;;;4948706;29;20203;-76
2022/06/12 06:07:57;;;;;;;1.85;1.70;;;21.10;99.90;;;;;;4940469;29;20704;-76
2022/06/12 06:10:27;;;;;;;1.73;1.63;;;21.10;99.90;;;;;;4939283;29;20269;-76
2022/06/12 06:12:55;;;;;;;1.63;1.52;;;21.10;99.90;;;;;;4938427;29;20219;-76
2022/06/12 06:15:23;;;;;;;2.35;1.45;;;21.10;99.90;;;;;;4938583;29;20195;-76
2022/06/12 06:17:52;;;;;;;2.00;1.88;;;21.20;99.90;;;;;;4941457;29;20218;-76
2022/06/12 06:20:24;;;;;;;1.60;1.50;;;21.10;99.90;;;;;;4933381;29;20217;-76
2022/06/12 06:22:52;;;;;;;1.58;1.48;;;21.20;99.90;;;;;;4937981;29;20229;-76
2022/06/12 06:25:19;;;;;;;1.70;1.60;;;21.30;99.90;;;;;;4942569;29;20203;-76
2022/06/12 06:27:47;;;;;;;2.35;1.70;;;21.40;99.90;;;;;;4937769;29;20227;-77
2022/06/12 06:30:15;;;;;;;1.85;1.65;;;21.60;99.90;;;;;;4940254;29;20697;-75
2022/06/12 06:32:43;;;;;;;2.05;1.95;;;21.80;99.90;;;;;;4939619;29;20690;-76
2022/06/12 06:35:11;;;;;;;1.42;1.33;;;21.80;99.90;;;;;;4933815;29;20210;-76
2022/06/12 06:37:40;;;;;;;2.10;1.95;;;21.90;99.90;;;;;;4940507;29;20230;-76
2022/06/12 06:40:10;;;;;;;1.42;1.30;;;22.10;99.90;;;;;;4941678;29;20222;-76
2022/06/12 06:42:38;;;;;;;1.50;1.40;;;22.20;99.90;;;;;;4938913;29;20237;-76
2022/06/12 06:47:51;;;;;;;2.10;1.50;;;22.70;99.90;;;;;;4941623;29;20599;-76
2022/06/12 06:50:21;;;;;;;1.52;1.42;;;22.90;99.90;;;;;;4939595;29;20194;-76
2022/06/12 06:52:49;;;;;;;1.55;1.45;;;23.10;99.90;;;;;;4938188;29;20226;-76
2022/06/12 06:55:17;;;;;;;1.50;1.40;;;23.10;99.90;;;;;;4938652;29;20202;-76
2022/06/12 06:57:46;;;;;;;1.90;1.80;;;23.10;99.90;;;;;;4949446;29;20797;-76
2022/06/12 07:00:18;;;;;;;2.10;1.90;;;23.20;99.90;;;;;;4941252;29;20233;-75
2022/06/12 07:02:45;;;;;;;1.80;1.70;;;23.20;99.90;;;;;;4936809;29;20347;-76
2022/06/12 07:05:13;;;;;;;1.60;1.50;;;23.30;99.90;;;;;;4938074;29;20206;-75
2022/06/12 07:07:40;;;;;;;1.95;1.85;;;23.30;99.90;;;;;;4935309;29;20222;-76
2022/06/12 07:10:12;;;;;;;1.65;1.55;;;23.20;99.90;;;;;;4938587;29;20655;-76
2022/06/12 07:12:39;;;;;;;1.60;1.50;;;23.30;99.90;;;;;;4938586;29;20226;-76
2022/06/12 07:15:08;;;;;;;1.70;1.60;;;23.30;99.90;;;;;;4942162;29;20214;-76
2022/06/12 07:17:35;;;;;;;1.55;1.45;;;23.30;99.90;;;;;;4937966;29;20231;-76
2022/06/12 07:20:02;;;;;;;1.58;1.40;;;23.50;99.90;;;;;;4941660;29;20766;-76
2022/06/12 07:22:29;;;;;;;2.20;2.00;;;23.50;99.90;;;;;;4938630;29;20593;-76
2022/06/12 07:24:56;;;;;;;1.73;1.63;;;23.40;99.90;;;;;;4939670;29;20245;-76
2022/06/12 07:27:25;;;;;;;1.58;1.48;;;23.50;99.90;;;;;;4943139;29;20318;-76
2022/06/12 07:29:52;;;;;;;1.83;1.73;;;23.60;99.90;;;;;;4940645;29;20198;-76
2022/06/12 07:32:20;;;;;;;1.73;1.40;;;23.70;99.90;;;;;;4938387;29;20234;-76
2022/06/12 07:34:47;;;;;;;1.80;1.70;;;23.90;99.90;;;;;;4943556;28;20222;-76
2022/06/12 07:37:15;;;;;;;2.30;1.73;;;24.00;99.90;;;;;;4943969;29;20281;-76
2022/06/12 07:39:42;;;;;;;1.70;1.60;;;24.00;99.90;;;;;;4937655;29;20218;-75
2022/06/12 07:42:09;;;;;;;1.55;1.45;;;24.10;99.90;;;;;;4942009;29;20225;-76
2022/06/12 07:44:38;;;;;;;1.80;1.70;;;24.30;99.90;;;;;;4958356;23;20229;-79
2022/06/12 07:47:06;;;;;;;3.83;1.80;;;24.30;99.90;;;;;;4968845;28;20236;-78
2022/06/12 07:49:34;;;;;;;1.65;1.55;;;24.40;99.90;;;;;;4962082;28;20210;-77
2022/06/12 07:52:05;;;;;;;1.60;1.50;;;24.20;99.90;;;;;;4966842;28;20229;-78
2022/06/12 07:54:34;;;;;;;2.65;1.67;;;24.40;99.90;;;;;;4960727;28;20232;-77
2022/06/12 07:57:01;;;;;;;1.55;1.45;;;24.40;99.90;;;;;;4940905;29;20709;-76
2022/06/12 07:59:29;;;;;;;1.45;1.35;;;24.50;99.90;;;;;;4925471;29;20215;-77
2022/06/12 08:01:58;;;;;;;2.35;1.65;;;24.60;99.90;;;;;;4926646;29;20663;-77
2022/06/12 08:04:25;;;;;;;2.85;1.73;;;24.70;99.90;;;;;;4940880;29;20694;-77
2022/06/12 08:06:53;;;;;;;1.73;1.63;;;24.90;99.90;;;;;;4929646;29;20218;-77
2022/06/12 08:09:21;;;;;;;1.98;1.30;;;24.80;99.90;;;;;;4928143;29;20192;-78
2022/06/12 08:11:50;;;;;;;1.67;1.58;;;24.80;99.90;;;;;;4925036;29;20204;-75
2022/06/12 08:14:20;;;;;;;3.03;1.70;;;25.00;99.90;;;;;;4924919;29;20214;-78
2022/06/12 08:16:47;;;;;;;1.77;1.67;;;25.10;99.90;;;;;;4927160;28;20208;-77
2022/06/12 08:22:03;;;;;;;1.88;1.77;;;25.20;99.90;;;;;;4925129;29;20305;-77
2022/06/12 08:24:31;;;;;;;3.55;1.50;;;25.40;99.90;;;;;;4941118;29;20274;-78
2022/06/12 08:26:59;;;;;;;2.60;1.40;;;25.40;99.90;;;;;;4947786;29;20195;-76
2022/06/12 08:29:27;;;;;;;1.58;1.48;;;25.50;99.90;;;;;;4939215;29;20655;-77
2022/06/12 08:31:57;;;;;;;2.13;1.50;;;25.80;99.90;;;;;;4947403;29;20199;-77
2022/06/12 08:34:28;;;;;;;1.33;1.23;;;25.80;99.90;;;;;;4938937;29;20237;-77
2022/06/12 08:36:58;;;;;;;1.70;1.40;;;25.80;99.90;;;;;;4941502;29;20206;-78
2022/06/12 08:39:26;;;;;;;1.60;1.50;;;25.90;99.90;;;;;;4944085;29;20222;-78
2022/06/12 08:42:00;;;;;;;2.22;1.52;;;25.90;99.90;;;;;;4932365;29;20207;-77
2022/06/12 08:44:33;;;;;;;1.83;1.60;;;25.90;99.90;;;;;;4929062;29;20281;-77
2022/06/12 08:47:08;;;;;;;1.42;1.33;;;25.90;99.90;;;;;;4936426;29;20203;-77
2022/06/12 08:49:44;;;;;;;2.15;1.42;;;26.10;99.90;;;;;;4942444;29;20222;-78
2022/06/12 08:52:16;;;;;;;1.40;1.30;;;26.30;99.90;;;;;;4944037;29;20575;-77
2022/06/12 08:54:50;;;;;;;1.63;1.40;;;26.40;99.90;;;;;;4938049;29;20259;-77
2022/06/12 08:57:23;;;;;;;1.40;1.30;;;26.60;99.90;;;;;;4937028;29;20231;-78
2022/06/12 08:59:56;;;;;;;1.33;1.23;;;26.60;99.90;;;;;;4934931;29;20222;-76
2022/06/12 09:02:27;;;;;;;1.80;1.40;;;26.90;99.90;;;;;;4935764;29;20247;-79
2022/06/12 09:04:56;;;;;;;1.70;1.60;;;27.00;99.90;;;;;;4934906;29;20270;-78
2022/06/12 09:07:28;;;;;;;2.05;1.80;;;26.90;99.90;;;;;;4933393;29;20222;-77
2022/06/12 09:10:00;;;;;;;1.70;1.60;;;26.90;99.90;;;;;;4934759;29;20194;-77
2022/06/12 09:12:35;;;;;;;1.55;1.45;;;26.80;99.90;;;;;;4933547;29;20223;-77
2022/06/12 09:15:13;;;;;;;1.60;1.50;;;26.70;99.90;;;;;;4928750;29;20745;-77
2022/06/12 09:17:50;;;;;;;1.65;1.50;;;26.70;99.90;;;;;;4931589;29;20241;-77
2022/06/12 09:20:31;;;;;;;1.48;1.42;;;26.60;99.90;;;;;;4933000;29;20223;-78
2022/06/12 09:23:06;;;;;;;1.58;1.30;;;26.50;99.90;;;;;;4941127;29;20716;-78
2022/06/12 09:25:40;;;;;;;1.60;1.50;;;26.60;99.90;;;;;;4939103;29;20226;-77
2022/06/12 09:28:18;;;;;;;2.03;1.52;;;26.70;99.90;;;;;;4928921;29;20219;-76
2022/06/12 09:30:49;;;;;;;1.25;1.25;;;26.80;99.90;;;;;;4933142;29;20191;-76
2022/06/12 09:33:25;;;;;;;1.55;1.40;;;26.80;99.90;;;;;;4935725;29;20274;-76
2022/06/12 09:36:03;;;;;;;1.45;1.35;;;27.00;99.90;;;;;;4931604;29;20253;-76
2022/06/12 09:38:45;;;;;;;1.60;1.50;;;27.20;99.90;;;;;;4939051;29;20222;-75
2022/06/12 09:41:18;;;;;;;1.50;1.40;;;27.60;99.90;;;;;;4936292;29;20221;-76
2022/06/12 09:43:58;;;;;;;1.48;1.38;;;27.90;99.90;;;;;;4932321;29;20258;-76
2022/06/12 09:46:36;;;;;;;1.73;1.45;;;28.10;99.90;;;;;;4937548;29;20738;-76
2022/06/12 09:49:14;;;;;;;1.55;1.10;;;27.90;99.90;;;;;;4931328;29;20240;-77
2022/06/12 09:51:57;;;;;;;1.30;1.20;;;28.10;99.90;;;;;;4938736;29;20728;-75
2022/06/12 09:54:39;;;;;;;1.27;1.20;;;28.30;99.90;;;;;;4934160;29;20246;-75
2022/06/12 09:57:17;;;;;;;1.30;1.20;;;28.20;99.90;;;;;;4941055;28;20545;-76
2022/06/12 09:59:50;;;;;;;1.52;1.42;;;28.20;99.90;;;;;;4936633;29;20218;-75
2022/06/12 10:02:23;;;;;;;1.45;1.35;;;28.20;99.90;;;;;;4944077;29;20206;-78
2022/06/12 10:04:57;;;;;;;1.75;1.65;;;28.00;99.90;;;;;;4947462;29;20579;-77
2022/06/12 10:07:31;;;;;;;1.50;1.33;;;27.90;99.90;;;;;;4939924;29;20235;-75
2022/06/12 10:10:03;;;;;;;1.50;1.40;;;27.90;99.90;;;;;;4944889;29;20198;-76
2022/06/12 10:12:36;;;;;;;1.40;1.30;;;28.00;99.90;;;;;;4945183;29;20223;-76
2022/06/12 10:15:11;;;;;;;1.50;1.40;;;28.20;99.90;;;;;;4948697;28;20230;-76
2022/06/12 10:17:45;;;;;;;2.47;1.50;;;28.30;99.90;;;;;;4933217;29;20236;-75
2022/06/12 10:20:17;;;;;;;1.60;1.50;;;28.00;99.90;;;;;;4946825;29;20217;-76
2022/06/12 10:22:49;;;;;;;1.30;1.25;;;28.10;99.90;;;;;;4936636;29;20257;-76
2022/06/12 10:25:21;;;;;;;1.33;1.30;;;28.40;99.90;;;;;;4948830;28;20236;-77
2022/06/12 10:27:51;;;;;;;1.40;1.30;;;28.40;99.90;;;;;;4932661;29;20237;-75
2022/06/12 10:30:41;;;;;;;1.40;1.30;;;28.60;99.90;;;;;;4951633;29;20202;-76
2022/06/12 10:33:19;;;;;;;0.98;0.98;;;28.70;99.90;;;;;;4933155;29;20245;-76
2022/06/12 10:35:53;;;;;;;1.25;1.15;;;28.90;99.90;;;;;;4942172;29;20222;-77
2022/06/12 10:38:23;;;;;;;2.05;1.17;;;29.00;99.90;;;;;;4949591;29;20218;-76
2022/06/12 10:40:54;;;;;;;1.73;1.30;;;29.10;99.90;;;;;;4942882;29;20749;-77
2022/06/12 10:43:29;;;;;;;1.40;1.30;;;29.20;99.90;;;;;;4944315;28;20595;-76
2022/06/12 10:46:00;;;;;;;1.42;1.33;;;29.40;99.90;;;;;;4941133;29;20233;-76
2022/06/12 10:48:30;;;;;;;1.27;1.17;;;29.40;99.90;;;;;;4944044;29;20223;-77
2022/06/12 10:51:00;;;;;;;1.30;1.20;;;29.20;99.90;;;;;;4941646;29;20194;-76
2022/06/12 10:53:31;;;;;;;1.40;1.13;;;29.10;99.90;;;;;;4949799;29;20597;-77
2022/06/12 10:56:04;;;;;;;2.20;1.00;;;29.20;99.90;;;;;;4946383;29;20222;-76
2022/06/12 10:59:09;;;;;;;1.42;1.08;;;29.30;99.90;;;;;;4943437;29;20223;-76
2022/06/12 11:01:43;;;;;;;1.15;1.10;;;29.50;99.90;;;;;;4937260;29;20207;-77
2022/06/12 11:04:25;;;;;;;0.77;0.77;;;29.70;99.90;;;;;;4950118;28;20226;-76
2022/06/12 11:07:03;;;;;;;1.33;1.10;;;29.60;99.80;;;;;;4945976;29;20788;-75
2022/06/12 11:09:46;;;;;;;1.30;1.20;;;29.80;99.30;;;;;;4938597;29;20214;-76
2022/06/12 11:12:38;;;;;;;1.25;0.90;;;29.70;99.90;;;;;;4948637;29;20198;-76
2022/06/12 11:15:34;;;;;;;1.00;1.00;;;29.60;98.80;;;;;;4939281;29;20246;-76
2022/06/12 11:18:14;;;;;;;1.00;1.00;;;29.60;99.20;;;;;;4934934;29;20227;-77
2022/06/12 11:20:50;;;;;;;1.98;1.30;;;29.70;99.90;;;;;;4938010;29;20269;-76
2022/06/12 11:23:33;;;;;;;0.95;0.95;;;29.40;99.80;;;;;;4942509;29;20228;-76
2022/06/12 11:26:17;;;;;;;0.90;0.90;;;29.20;99.70;;;;;;4954120;28;20594;-76
2022/06/12 11:28:58;;;;;;;1.02;1.02;;;29.00;99.30;;;;;;4933757;29;20245;-76
2022/06/12 11:31:39;;;;;;;0.93;0.90;;;28.70;99.40;;;;;;4948155;29;20190;-76
2022/06/12 11:34:18;;;;;;;1.30;1.20;;;28.60;99.80;;;;;;4934693;29;20230;-76
2022/06/12 11:36:59;;;;;;;1.30;1.20;;;28.50;99.90;;;;;;4945935;29;20194;-76
2022/06/12 11:39:40;;;;;;;1.08;1.00;;;28.90;99.90;;;;;;4945804;29;20225;-76
2022/06/12 11:42:23;;;;;;;1.58;1.10;;;29.40;99.90;;;;;;4949045;29;20196;-75
2022/06/12 11:45:04;;;;;;;1.27;1.15;;;29.70;99.80;;;;;;4940841;28;20250;-77
2022/06/12 11:47:45;;;;;;;1.23;1.13;;;30.00;99.80;;;;;;4950565;29;20708;-76
2022/06/12 11:50:26;;;;;;;0.90;0.90;;;30.20;98.60;;;;;;4934291;29;20758;-75
2022/06/12 11:53:03;;;;;;;1.10;1.00;;;30.20;97.40;;;;;;4936546;29;20226;-77
2022/06/12 11:55:36;;;;;;;1.10;0.90;;;30.30;99.00;;;;;;4950178;28;20219;-76
2022/06/12 11:58:23;;;;;;;1.33;1.10;;;30.50;98.90;;;;;;4946849;29;20739;-76
2022/06/12 12:00:58;;;;;;;1.02;1.00;;;30.50;98.60;;;;;;4941452;29;20268;-77
2022/06/12 12:03:53;;;;;;;1.02;1.02;;;30.40;97.30;;;;;;4940684;29;20222;-77
2022/06/12 12:06:35;;;;;;;0.82;0.82;;;30.50;98.10;;;;;;4944509;29;20211;-77
2022/06/12 12:09:19;;;;;;;0.82;0.82;;;30.70;98.60;;;;;;4930092;29;20223;-77
2022/06/12 12:11:49;;;;;;;1.20;1.10;;;30.90;98.90;;;;;;4942778;29;20199;-75
2022/06/12 12:14:23;;;;;;;1.15;0.90;;;30.90;97.70;;;;;;4942484;29;20713;-77
2022/06/12 12:16:54;;;;;;;1.92;1.10;;;30.80;98.10;;;;;;4947362;29;20567;-77
2022/06/12 12:19:25;;;;;;;1.08;1.00;;;30.60;98.30;;;;;;4935704;29;20227;-77
2022/06/12 12:21:56;;;;;;;0.90;0.90;;;30.70;98.50;;;;;;4945385;29;20716;-76
2022/06/12 12:24:27;;;;;;;1.13;1.00;;;30.70;98.30;;;;;;4953820;28;20241;-77
2022/06/12 12:26:58;;;;;;;1.30;1.20;;;30.70;98.60;;;;;;4947138;29;20206;-77
2022/06/12 12:29:30;;;;;;;1.00;0.90;;;30.80;98.50;;;;;;4947260;29;20219;-76
2022/06/12 12:31:58;;;;;;;0.90;0.90;;;30.80;98.40;;;;;;4945343;29;20195;-77
2022/06/12 12:34:28;;;;;;;1.00;1.00;;;30.90;98.00;;;;;;4951532;28;20226;-76
2022/06/12 12:42:30;;;;;;;1.00;1.00;;;31.60;98.00;;;;;;4955218;29;20209;-77
2022/06/12 12:45:13;;;;;;;0.98;0.80;;;31.80;97.70;;;;;;4935772;29;20234;-76
2022/06/12 12:47:41;;;;;;;1.27;1.10;;;32.00;95.80;;;;;;4935754;29;20198;-77
2022/06/12 12:50:10;;;;;;;1.00;1.00;;;31.80;96.50;;;;;;4950317;29;20202;-77
2022/06/12 12:52:44;;;;;;;0.95;0.95;;;31.60;96.70;;;;;;4946387;29;20595;-77
2022/06/12 12:55:28;;;;;;;1.00;0.98;;;31.40;96.10;;;;;;4943362;28;20227;-76
2022/06/12 12:57:57;;;;;;;1.00;1.00;;;31.40;96.20;;;;;;4939820;29;20221;-77
2022/06/12 13:00:33;;;;;;;1.58;1.15;;;31.50;96.00;;;;;;4937610;29;20617;-76
2022/06/12 13:03:28;;;;;;;0.98;0.93;;;31.40;95.00;;;;;;4928778;29;20233;-76
2022/06/12 13:06:18;;;;;;;0.80;0.80;;;31.50;93.70;;;;;;4942624;29;20242;-77
2022/06/12 13:09:02;;;;;;;1.70;0.90;;;31.50;92.70;;;;;;4930118;29;20222;-76
2022/06/12 13:11:39;;;;;;;1.17;0.85;;;31.80;93.20;;;;;;4955161;29;20214;-77
2022/06/12 13:14:30;;;;;;;0.80;0.80;;;32.20;92.70;;;;;;4942777;29;20237;-76
2022/06/12 13:17:16;;;;;;;0.82;0.82;;;32.30;90.20;;;;;;4945279;29;20573;-77
2022/06/12 13:20:06;;;;;;;0.70;0.70;;;32.40;90.10;;;;;;4946815;29;20233;-77
2022/06/12 13:22:49;;;;;;;0.50;0.50;;;32.60;91.00;;;;;;4952044;29;20214;-76
2022/06/12 13:25:21;;;;;;;0.65;0.63;;;32.70;91.50;;;;;;4941171;29;20226;-77
2022/06/12 13:27:53;;;;;;;1.85;0.70;;;32.80;90.40;;;;;;4942928;29;20217;-77
2022/06/12 13:30:22;;;;;;;0.73;0.73;;;32.80;90.10;;;;;;4948632;29;20271;-77
2022/06/12 13:32:51;;;;;;;0.75;0.73;;;32.90;90.50;;;;;;4948582;28;20202;-76
2022/06/12 13:35:23;;;;;;;1.10;0.85;;;32.70;89.60;;;;;;4946521;29;20229;-77